createdAt,value
2022-08-09T00:01:54.924Z,66.83
2022-08-09T00:12:03.951Z,67.13
2022-08-09T00:22:07.698Z,68.14
2022-08-09T00:32:25.743Z,68.23
2022-08-09T00:44:13.223Z,67.65
2022-08-09T00:52:53.864Z,67.85
2022-08-09T01:03:09.979Z,67.90
2022-08-09T01:13:16.714Z,68.19
2022-08-09T01:24:02.212Z,68.08
2022-08-09T01:34:10.776Z,68.23
2022-08-09T01:44:15.994Z,68.27
2022-08-09T01:54:21.470Z,68.96
2022-08-09T02:04:26.221Z,68.70
2022-08-09T02:14:30.587Z,68.33
2022-08-09T02:24:38.222Z,68.37
2022-08-09T02:34:51.863Z,69.03
2022-08-09T02:45:15.078Z,69.39
2022-08-09T02:55:20.938Z,69.36
2022-08-09T03:05:25.232Z,69.33
2022-08-09T03:15:40.645Z,69.89
2022-08-09T03:25:58.981Z,70.42
2022-08-09T03:36:13.061Z,70.28
2022-08-09T03:46:27.275Z,70.75
2022-08-09T03:56:33.268Z,69.96
2022-08-09T04:06:37.490Z,69.53
2022-08-09T04:16:41.447Z,69.23
2022-08-09T04:26:45.455Z,68.82
2022-08-09T04:36:50.450Z,68.37
2022-08-09T04:46:59.454Z,65.80
2022-08-09T04:57:09.378Z,64.13
2022-08-09T05:07:19.089Z,63.89
2022-08-09T05:18:39.559Z,64.87
2022-08-09T05:27:48.070Z,66.26
2022-08-09T05:37:51.214Z,65.62
2022-08-09T05:47:59.225Z,61.99
2022-08-09T05:58:07.108Z,61.00
2022-08-09T06:08:11.086Z,60.99
2022-08-09T06:18:15.736Z,61.60
2022-08-09T06:28:19.743Z,61.85
2022-08-09T06:38:32.167Z,62.01
2022-08-09T06:48:42.932Z,63.16
2022-08-09T07:00:53.059Z,62.25
2022-08-09T07:09:53.446Z,61.06
2022-08-09T07:19:32.141Z,59.30
2022-08-09T07:29:37.904Z,59.65
2022-08-09T07:39:46.459Z,59.94
2022-08-09T07:50:04.813Z,58.48
2022-08-09T08:00:10.126Z,57.07
2022-08-09T08:10:14.947Z,57.53
2022-08-09T08:20:28.531Z,56.70
2022-08-09T08:30:33.687Z,52.76
2022-08-09T08:40:37.424Z,49.49
2022-08-09T08:50:40.409Z,52.36
2022-08-09T09:00:56.407Z,52.24
2022-08-09T09:11:05.792Z,51.88
2022-08-09T09:21:08.896Z,51.38
2022-08-09T09:32:01.670Z,50.62
2022-08-09T09:41:49.201Z,48.28
2022-08-09T09:52:02.101Z,45.15
2022-08-09T10:02:06.606Z,40.13
2022-08-09T10:12:14.289Z,43.40
2022-08-09T10:22:36.388Z,42.87
2022-08-09T10:32:42.694Z,41.69
2022-08-09T10:42:46.216Z,40.60
2022-08-09T10:53:10.025Z,37.94
2022-08-09T11:03:49.784Z,39.71
2022-08-09T11:14:28.248Z,39.21
2022-08-09T11:25:10.198Z,42.38
2022-08-09T11:35:35.309Z,37.76
2022-08-09T11:46:00.602Z,38.92
2022-08-09T11:56:19.347Z,36.80
2022-08-09T12:06:26.625Z,37.78
2022-08-09T12:16:39.954Z,36.54
2022-08-09T12:28:58.297Z,37.05
2022-08-09T12:37:23.741Z,36.75
2022-08-09T12:47:28.861Z,37.41
2022-08-09T12:57:43.195Z,36.79
2022-08-09T13:08:14.424Z,35.23
2022-08-09T13:18:18.247Z,36.81
2022-08-09T13:28:24.593Z,37.14
2022-08-09T13:38:55.407Z,36.28
2022-08-09T13:48:59.518Z,37.58
2022-08-09T13:59:06.016Z,38.33
2022-08-09T14:09:10.982Z,37.96
2022-08-09T14:19:13.959Z,37.84
2022-08-09T14:30:18.339Z,37.85
2022-08-09T14:39:48.035Z,38.88
2022-08-09T14:50:01.862Z,37.96
2022-08-09T15:00:06.518Z,39.27
2022-08-09T15:10:14.055Z,37.97
2022-08-09T15:21:54.922Z,38.71
2022-08-09T15:30:48.861Z,38.44
2022-08-09T15:41:09.536Z,39.06
2022-08-09T15:51:44.520Z,39.58
2022-08-09T16:01:36.041Z,39.98
2022-08-09T16:11:51.594Z,40.36
2022-08-09T16:22:02.517Z,41.02
2022-08-09T16:32:18.137Z,41.07
2022-08-09T16:42:29.259Z,41.32
2022-08-09T16:52:32.695Z,41.28
2022-08-09T17:02:39.122Z,41.09
2022-08-09T17:12:46.627Z,41.77
2022-08-09T17:22:51.981Z,41.58
2022-08-09T17:33:05.455Z,41.78
2022-08-09T17:43:33.954Z,41.41
2022-08-09T17:53:43.348Z,41.31
2022-08-09T18:03:52.585Z,41.78
2022-08-09T18:14:04.636Z,41.50
2022-08-09T18:24:15.791Z,42.44
2022-08-09T18:34:19.071Z,43.19
2022-08-09T18:44:27.075Z,43.84
2022-08-09T18:54:30.634Z,44.44
2022-08-09T19:04:34.749Z,45.07
2022-08-09T19:14:39.545Z,45.71
2022-08-09T19:25:07.429Z,46.24
2022-08-09T19:35:10.050Z,46.71
2022-08-09T19:45:13.442Z,46.98
2022-08-09T19:55:19.533Z,47.57
2022-08-09T20:05:28.806Z,47.96
2022-08-09T20:16:35.232Z,48.29
2022-08-09T20:26:10.185Z,48.95
2022-08-09T20:36:16.395Z,48.85
2022-08-09T20:46:33.991Z,49.08
2022-08-09T20:56:49.862Z,49.01
2022-08-09T21:06:56.948Z,49.19
2022-08-09T21:17:01.061Z,49.21
2022-08-09T21:27:50.490Z,49.41
2022-08-09T21:37:27.624Z,49.41
2022-08-09T21:47:42.316Z,49.67
2022-08-09T21:57:59.213Z,49.91
2022-08-09T22:08:04.088Z,49.96
2022-08-09T22:18:11.953Z,50.11
2022-08-09T22:28:29.554Z,50.62
2022-08-09T22:38:35.731Z,50.85
2022-08-09T22:48:44.982Z,50.98
2022-08-09T22:58:53.472Z,51.13
2022-08-09T23:08:56.807Z,51.65
2022-08-09T23:19:00.219Z,51.92
2022-08-09T23:29:04.618Z,52.24
2022-08-09T23:39:08.336Z,52.75
2022-08-09T23:49:14.182Z,53.59
2022-08-09T23:59:17.174Z,54.08
